sensor_id;sensor_type;location;lat;lon;timestamp;temperature;humidity
19152;DHT22;9708;53.114;9.388;2024-03-23T00:55:00;7.20;99.90
19152;DHT22;9708;53.114;9.388;2024-03-23T00:57:26;7.20;99.90
19152;DHT22;9708;53.114;9.388;2024-03-23T00:59:52;7.20;99.90
19152;DHT22;9708;53.114;9.388;2024-03-23T01:02:19;7.20;99.90
19152;DHT22;9708;53.114;9.388;2024-03-23T01:04:45;7.20;99.90
19152;DHT22;9708;53.114;9.388;2024-03-23T01:07:12;7.20;99.90
19152;DHT22;9708;53.114;9.388;2024-03-23T01:09:39;7.20;99.90
19152;DHT22;9708;53.114;9.388;2024-03-23T01:12:06;7.10;99.90
19152;DHT22;9708;53.114;9.388;2024-03-23T01:14:32;7.10;99.90
19152;DHT22;9708;53.114;9.388;2024-03-23T01:16:59;7.10;99.90
19152;DHT22;9708;53.114;9.388;2024-03-23T01:19:25;7.10;99.90
19152;DHT22;9708;53.114;9.388;2024-03-23T01:21:51;7.10;99.90
19152;DHT22;9708;53.114;9.388;2024-03-23T01:24:17;7.00;99.90
19152;DHT22;9708;53.114;9.388;2024-03-23T01:26:46;7.00;99.90
19152;DHT22;9708;53.114;9.388;2024-03-23T01:29:11;7.00;99.90
19152;DHT22;9708;53.114;9.388;2024-03-23T01:31:38;7.00;99.90
19152;DHT22;9708;53.114;9.388;2024-03-23T01:34:04;7.00;99.90
19152;DHT22;9708;53.114;9.388;2024-03-23T01:36:31;7.00;99.90
19152;DHT22;9708;53.114;9.388;2024-03-23T01:38:57;7.00;99.90
19152;DHT22;9708;53.114;9.388;2024-03-23T01:41:24;6.90;99.90
19152;DHT22;9708;53.114;9.388;2024-03-23T01:43:51;6.90;99.90
19152;DHT22;9708;53.114;9.388;2024-03-23T01:46:19;6.90;99.90
19152;DHT22;9708;53.114;9.388;2024-03-23T01:48:46;6.90;99.90
19152;DHT22;9708;53.114;9.388;2024-03-23T01:51:13;6.90;99.90
19152;DHT22;9708;53.114;9.388;2024-03-23T01:53:40;6.90;99.90
19152;DHT22;9708;53.114;9.388;2024-03-23T01:56:07;6.90;99.90
19152;DHT22;9708;53.114;9.388;2024-03-23T01:58:33;6.80;99.90
19152;DHT22;9708;53.114;9.388;2024-03-23T02:01:01;6.80;99.90
19152;DHT22;9708;53.114;9.388;2024-03-23T02:03:28;6.70;99.90
19152;DHT22;9708;53.114;9.388;2024-03-23T02:05:55;6.70;99.90
19152;DHT22;9708;53.114;9.388;2024-03-23T02:08:22;6.70;99.90
19152;DHT22;9708;53.114;9.388;2024-03-23T02:10:50;6.60;99.90
19152;DHT22;9708;53.114;9.388;2024-03-23T02:13:17;6.60;99.90
19152;DHT22;9708;53.114;9.388;2024-03-23T02:15:44;6.60;99.90
19152;DHT22;9708;53.114;9.388;2024-03-23T02:18:12;6.60;99.90
19152;DHT22;9708;53.114;9.388;2024-03-23T02:20:38;6.60;99.90
19152;DHT22;9708;53.114;9.388;2024-03-23T02:23:09;6.60;99.90
19152;DHT22;9708;53.114;9.388;2024-03-23T02:25:39;6.60;99.90
19152;DHT22;9708;53.114;9.388;2024-03-23T02:28:05;6.60;99.90
19152;DHT22;9708;53.114;9.388;2024-03-23T02:30:32;6.60;99.90
19152;DHT22;9708;53.114;9.388;2024-03-23T02:32:58;6.60;99.90
19152;DHT22;9708;53.114;9.388;2024-03-23T02:35:25;6.60;99.90
19152;DHT22;9708;53.114;9.388;2024-03-23T02:37:51;6.50;99.90
19152;DHT22;9708;53.114;9.388;2024-03-23T02:40:20;6.50;99.90
19152;DHT22;9708;53.114;9.388;2024-03-23T02:42:46;6.50;99.90
19152;DHT22;9708;53.114;9.388;2024-03-23T02:45:12;6.50;99.90
19152;DHT22;9708;53.114;9.388;2024-03-23T02:47:38;6.50;99.90
19152;DHT22;9708;53.114;9.388;2024-03-23T02:50:06;6.50;99.90
19152;DHT22;9708;53.114;9.388;2024-03-23T02:52:32;6.40;99.90
19152;DHT22;9708;53.114;9.388;2024-03-23T02:54:59;6.40;99.90
19152;DHT22;9708;53.114;9.388;2024-03-23T02:57:26;6.40;99.90
19152;DHT22;9708;53.114;9.388;2024-03-23T02:59:53;6.40;99.90
19152;DHT22;9708;53.114;9.388;2024-03-23T03:02:19;6.40;99.90
19152;DHT22;9708;53.114;9.388;2024-03-23T03:04:46;6.40;99.90
19152;DHT22;9708;53.114;9.388;2024-03-23T03:07:12;6.50;99.90
19152;DHT22;9708;53.114;9.388;2024-03-23T03:09:39;6.50;99.90
19152;DHT22;9708;53.114;9.388;2024-03-23T03:12:05;6.40;99.90
19152;DHT22;9708;53.114;9.388;2024-03-23T03:14:34;6.40;99.90
19152;DHT22;9708;53.114;9.388;2024-03-23T03:17:00;6.40;99.90
19152;DHT22;9708;53.114;9.388;2024-03-23T03:19:27;6.40;99.90
19152;DHT22;9708;53.114;9.388;2024-03-23T03:21:53;6.30;99.90
19152;DHT22;9708;53.114;9.388;2024-03-23T03:24:20;6.40;99.90
19152;DHT22;9708;53.114;9.388;2024-03-23T03:26:45;6.40;99.90
19152;DHT22;9708;53.114;9.388;2024-03-23T03:29:12;6.40;99.90
19152;DHT22;9708;53.114;9.388;2024-03-23T03:31:40;6.30;99.90
19152;DHT22;9708;53.114;9.388;2024-03-23T03:34:07;6.40;99.90
19152;DHT22;9708;53.114;9.388;2024-03-23T03:36:33;6.40;99.90
19152;DHT22;9708;53.114;9.388;2024-03-23T03:38:59;6.40;99.90
19152;DHT22;9708;53.114;9.388;2024-03-23T03:41:25;6.40;99.90
19152;DHT22;9708;53.114;9.388;2024-03-23T03:43:52;6.40;99.90
19152;DHT22;9708;53.114;9.388;2024-03-23T03:46:18;6.40;99.90
19152;DHT22;9708;53.114;9.388;2024-03-23T03:48:46;6.40;99.90
19152;DHT22;9708;53.114;9.388;2024-03-23T03:51:14;6.40;99.90
19152;DHT22;9708;53.114;9.388;2024-03-23T03:53:41;6.40;99.90
19152;DHT22;9708;53.114;9.388;2024-03-23T03:56:07;6.30;99.90
19152;DHT22;9708;53.114;9.388;2024-03-23T03:58:34;6.30;99.90
19152;DHT22;9708;53.114;9.388;2024-03-23T04:01:00;6.30;99.90
19152;DHT22;9708;53.114;9.388;2024-03-23T04:03:26;6.30;99.90
19152;DHT22;9708;53.114;9.388;2024-03-23T04:05:54;6.30;99.90
19152;DHT22;9708;53.114;9.388;2024-03-23T04:08:21;6.30;99.90
19152;DHT22;9708;53.114;9.388;2024-03-23T04:10:47;6.30;99.90
19152;DHT22;9708;53.114;9.388;2024-03-23T04:13:14;6.30;99.90
19152;DHT22;9708;53.114;9.388;2024-03-23T04:15:40;6.30;99.90
19152;DHT22;9708;53.114;9.388;2024-03-23T04:18:07;6.30;99.90
19152;DHT22;9708;53.114;9.388;2024-03-23T04:20:33;6.30;99.90
19152;DHT22;9708;53.114;9.388;2024-03-23T04:23:02;6.30;99.90
19152;DHT22;9708;53.114;9.388;2024-03-23T04:25:28;6.30;99.90
19152;DHT22;9708;53.114;9.388;2024-03-23T04:27:55;6.30;99.90
19152;DHT22;9708;53.114;9.388;2024-03-23T04:30:22;6.20;99.90
19152;DHT22;9708;53.114;9.388;2024-03-23T04:32:50;6.30;99.90
19152;DHT22;9708;53.114;9.388;2024-03-23T04:35:16;6.30;99.90
19152;DHT22;9708;53.114;9.388;2024-03-23T04:37:45;6.30;99.90
19152;DHT22;9708;53.114;9.388;2024-03-23T04:40:13;6.20;99.90
19152;DHT22;9708;53.114;9.388;2024-03-23T04:42:40;6.30;99.90
19152;DHT22;9708;53.114;9.388;2024-03-23T04:45:07;6.20;99.90
19152;DHT22;9708;53.114;9.388;2024-03-23T04:47:34;6.20;99.90
19152;DHT22;9708;53.114;9.388;2024-03-23T04:50:02;6.20;99.90
19152;DHT22;9708;53.114;9.388;2024-03-23T04:52:29;6.20;99.90
19152;DHT22;9708;53.114;9.388;2024-03-23T04:54:56;6.20;99.90
19152;DHT22;9708;53.114;9.388;2024-03-23T04:57:23;6.10;99.90
19152;DHT22;9708;53.114;9.388;2024-03-23T04:59:50;6.20;99.90
19152;DHT22;9708;53.114;9.388;2024-03-23T05:02:16;6.20;99.90
19152;DHT22;9708;53.114;9.388;2024-03-23T05:04:43;6.20;99.90
19152;DHT22;9708;53.114;9.388;2024-03-23T05:07:09;6.20;99.90
19152;DHT22;9708;53.114;9.388;2024-03-23T05:09:36;6.20;99.90
19152;DHT22;9708;53.114;9.388;2024-03-23T05:12:03;6.20;99.90
19152;DHT22;9708;53.114;9.388;2024-03-23T05:14:31;6.20;99.90
19152;DHT22;9708;53.114;9.388;2024-03-23T05:16:58;6.30;99.90
19152;DHT22;9708;53.114;9.388;2024-03-23T05:19:24;6.20;99.90
19152;DHT22;9708;53.114;9.388;2024-03-23T05:21:51;6.20;99.90
19152;DHT22;9708;53.114;9.388;2024-03-23T05:24:18;6.20;99.90
19152;DHT22;9708;53.114;9.388;2024-03-23T05:26:45;6.20;99.90
19152;DHT22;9708;53.114;9.388;2024-03-23T05:29:11;6.20;99.90
19152;DHT22;9708;53.114;9.388;2024-03-23T05:31:40;6.20;99.90
19152;DHT22;9708;53.114;9.388;2024-03-23T05:34:07;6.20;99.90
19152;DHT22;9708;53.114;9.388;2024-03-23T05:36:34;6.20;99.90
19152;DHT22;9708;53.114;9.388;2024-03-23T05:39:00;6.20;99.90
19152;DHT22;9708;53.114;9.388;2024-03-23T05:41:27;6.20;99.90
19152;DHT22;9708;53.114;9.388;2024-03-23T05:43:53;6.20;99.90
19152;DHT22;9708;53.114;9.388;2024-03-23T05:46:19;6.20;99.90
19152;DHT22;9708;53.114;9.388;2024-03-23T05:48:47;6.30;99.90
19152;DHT22;9708;53.114;9.388;2024-03-23T05:51:14;6.20;99.90
19152;DHT22;9708;53.114;9.388;2024-03-23T05:53:40;6.30;99.90
19152;DHT22;9708;53.114;9.388;2024-03-23T05:56:07;6.30;99.90
19152;DHT22;9708;53.114;9.388;2024-03-23T05:58:33;6.30;99.90
19152;DHT22;9708;53.114;9.388;2024-03-23T06:01:00;6.30;99.90
19152;DHT22;9708;53.114;9.388;2024-03-23T06:03:27;6.30;99.90
19152;DHT22;9708;53.114;9.388;2024-03-23T06:05:56;6.30;99.90
19152;DHT22;9708;53.114;9.388;2024-03-23T06:08:22;6.40;99.90
19152;DHT22;9708;53.114;9.388;2024-03-23T06:10:49;6.40;99.90
19152;DHT22;9708;53.114;9.388;2024-03-23T06:13:16;6.50;99.90
19152;DHT22;9708;53.114;9.388;2024-03-23T06:15:43;6.50;99.90
19152;DHT22;9708;53.114;9.388;2024-03-23T06:18:11;6.50;99.90
19152;DHT22;9708;53.114;9.388;2024-03-23T06:20:37;6.40;99.90
19152;DHT22;9708;53.114;9.388;2024-03-23T06:23:05;6.50;99.90
19152;DHT22;9708;53.114;9.388;2024-03-23T06:25:32;6.50;99.90
19152;DHT22;9708;53.114;9.388;2024-03-23T06:27:58;6.60;99.90
19152;DHT22;9708;53.114;9.388;2024-03-23T06:30:25;6.60;99.90
19152;DHT22;9708;53.114;9.388;2024-03-23T06:32:52;6.70;99.90
19152;DHT22;9708;53.114;9.388;2024-03-23T06:35:19;6.70;99.90
19152;DHT22;9708;53.114;9.388;2024-03-23T06:37:45;6.70;99.90
19152;DHT22;9708;53.114;9.388;2024-03-23T06:40:13;6.70;99.90
19152;DHT22;9708;53.114;9.388;2024-03-23T06:42:39;6.80;99.90
19152;DHT22;9708;53.114;9.388;2024-03-23T06:45:07;7.00;99.90
19152;DHT22;9708;53.114;9.388;2024-03-23T06:47:33;7.30;99.90
19152;DHT22;9708;53.114;9.388;2024-03-23T06:50:01;8.00;99.90
19152;DHT22;9708;53.114;9.388;2024-03-23T06:52:27;8.90;99.90
19152;DHT22;9708;53.114;9.388;2024-03-23T06:54:54;9.90;99.90
19152;DHT22;9708;53.114;9.388;2024-03-23T06:57:21;10.80;99.90
19152;DHT22;9708;53.114;9.388;2024-03-23T06:59:48;11.30;99.90
19152;DHT22;9708;53.114;9.388;2024-03-23T07:02:14;11.60;99.90
19152;DHT22;9708;53.114;9.388;2024-03-23T07:04:41;11.70;99.90
19152;DHT22;9708;53.114;9.388;2024-03-23T07:07:07;11.70;99.90
19152;DHT22;9708;53.114;9.388;2024-03-23T07:09:34;11.60;99.90
19152;DHT22;9708;53.114;9.388;2024-03-23T07:12:00;12.10;99.90
19152;DHT22;9708;53.114;9.388;2024-03-23T07:14:28;12.50;99.90
19152;DHT22;9708;53.114;9.388;2024-03-23T07:16:54;13.40;99.90
19152;DHT22;9708;53.114;9.388;2024-03-23T07:19:21;14.20;99.90
19152;DHT22;9708;53.114;9.388;2024-03-23T07:21:47;14.40;99.90
19152;DHT22;9708;53.114;9.388;2024-03-23T07:24:14;14.60;99.90
19152;DHT22;9708;53.114;9.388;2024-03-23T07:26:40;14.60;99.90
19152;DHT22;9708;53.114;9.388;2024-03-23T07:29:07;15.40;99.90
19152;DHT22;9708;53.114;9.388;2024-03-23T07:31:34;16.00;99.90
19152;DHT22;9708;53.114;9.388;2024-03-23T07:34:01;15.60;99.90
19152;DHT22;9708;53.114;9.388;2024-03-23T07:36:27;15.60;99.90
19152;DHT22;9708;53.114;9.388;2024-03-23T07:38:54;15.70;99.90
19152;DHT22;9708;53.114;9.388;2024-03-23T07:41:21;15.20;99.90
19152;DHT22;9708;53.114;9.388;2024-03-23T07:43:48;15.20;99.90
19152;DHT22;9708;53.114;9.388;2024-03-23T07:46:15;14.90;99.90
19152;DHT22;9708;53.114;9.388;2024-03-23T07:48:43;15.00;99.90
19152;DHT22;9708;53.114;9.388;2024-03-23T07:51:11;14.70;99.90
19152;DHT22;9708;53.114;9.388;2024-03-23T07:53:38;15.10;99.90
19152;DHT22;9708;53.114;9.388;2024-03-23T07:56:06;15.50;99.90
19152;DHT22;9708;53.114;9.388;2024-03-23T07:58:33;15.50;99.90
19152;DHT22;9708;53.114;9.388;2024-03-23T08:01:04;15.60;99.90
19152;DHT22;9708;53.114;9.388;2024-03-23T08:03:30;15.00;99.90
19152;DHT22;9708;53.114;9.388;2024-03-23T08:06:06;15.10;99.90
19152;DHT22;9708;53.114;9.388;2024-03-23T08:08:32;14.60;99.90
19152;DHT22;9708;53.114;9.388;2024-03-23T08:10:59;14.40;99.90
19152;DHT22;9708;53.114;9.388;2024-03-23T08:13:26;14.60;99.90
19152;DHT22;9708;53.114;9.388;2024-03-23T08:15:56;14.10;99.90
19152;DHT22;9708;53.114;9.388;2024-03-23T08:18:22;13.30;99.90
19152;DHT22;9708;53.114;9.388;2024-03-23T08:20:55;13.70;99.90
19152;DHT22;9708;53.114;9.388;2024-03-23T08:23:23;13.70;99.90
19152;DHT22;9708;53.114;9.388;2024-03-23T08:25:50;13.20;99.90
19152;DHT22;9708;53.114;9.388;2024-03-23T08:28:16;13.10;99.90
19152;DHT22;9708;53.114;9.388;2024-03-23T08:30:43;12.40;99.90
19152;DHT22;9708;53.114;9.388;2024-03-23T08:33:09;11.90;99.90
19152;DHT22;9708;53.114;9.388;2024-03-23T08:35:38;12.40;99.90
19152;DHT22;9708;53.114;9.388;2024-03-23T08:38:04;13.90;99.90
19152;DHT22;9708;53.114;9.388;2024-03-23T08:40:32;14.80;99.90
19152;DHT22;9708;53.114;9.388;2024-03-23T08:42:58;14.90;99.90
19152;DHT22;9708;53.114;9.388;2024-03-23T08:45:25;14.70;99.90
19152;DHT22;9708;53.114;9.388;2024-03-23T08:47:51;14.30;99.90
19152;DHT22;9708;53.114;9.388;2024-03-23T08:50:18;13.20;99.90
19152;DHT22;9708;53.114;9.388;2024-03-23T08:52:44;12.40;99.90
19152;DHT22;9708;53.114;9.388;2024-03-23T08:55:11;11.90;99.90
19152;DHT22;9708;53.114;9.388;2024-03-23T08:57:38;12.30;99.90
19152;DHT22;9708;53.114;9.388;2024-03-23T09:00:06;12.60;99.90
19152;DHT22;9708;53.114;9.388;2024-03-23T09:02:34;13.00;99.90
19152;DHT22;9708;53.114;9.388;2024-03-23T09:05:01;14.00;99.90
19152;DHT22;9708;53.114;9.388;2024-03-23T09:07:30;13.60;99.90
19152;DHT22;9708;53.114;9.388;2024-03-23T09:09:57;13.80;99.90
19152;DHT22;9708;53.114;9.388;2024-03-23T09:12:23;14.80;99.90
19152;DHT22;9708;53.114;9.388;2024-03-23T09:14:51;15.40;99.90
19152;DHT22;9708;53.114;9.388;2024-03-23T09:17:18;15.90;99.90
19152;DHT22;9708;53.114;9.388;2024-03-23T09:19:45;15.50;99.90
19152;DHT22;9708;53.114;9.388;2024-03-23T09:22:11;16.00;99.90
19152;DHT22;9708;53.114;9.388;2024-03-23T09:24:39;14.60;99.90
19152;DHT22;9708;53.114;9.388;2024-03-23T09:27:05;13.50;99.90
19152;DHT22;9708;53.114;9.388;2024-03-23T09:29:32;12.70;99.90
19152;DHT22;9708;53.114;9.388;2024-03-23T09:31:59;12.40;99.90
19152;DHT22;9708;53.114;9.388;2024-03-23T09:34:26;12.10;99.90
19152;DHT22;9708;53.114;9.388;2024-03-23T09:36:52;12.70;99.90
19152;DHT22;9708;53.114;9.388;2024-03-23T09:39:19;12.70;99.90
19152;DHT22;9708;53.114;9.388;2024-03-23T09:41:45;13.50;99.90
19152;DHT22;9708;53.114;9.388;2024-03-23T09:44:12;14.90;99.90
19152;DHT22;9708;53.114;9.388;2024-03-23T09:46:38;16.30;99.90
19152;DHT22;9708;53.114;9.388;2024-03-23T09:49:07;16.00;99.90
19152;DHT22;9708;53.114;9.388;2024-03-23T09:51:36;16.20;99.90
19152;DHT22;9708;53.114;9.388;2024-03-23T09:54:03;17.20;99.90
19152;DHT22;9708;53.114;9.388;2024-03-23T09:56:29;16.80;99.90
19152;DHT22;9708;53.114;9.388;2024-03-23T09:59:01;15.30;99.90
19152;DHT22;9708;53.114;9.388;2024-03-23T10:01:27;15.20;99.90
19152;DHT22;9708;53.114;9.388;2024-03-23T10:03:53;14.60;99.90
19152;DHT22;9708;53.114;9.388;2024-03-23T10:06:23;14.90;99.90
19152;DHT22;9708;53.114;9.388;2024-03-23T10:08:51;16.20;99.90
19152;DHT22;9708;53.114;9.388;2024-03-23T10:11:19;16.50;99.90
19152;DHT22;9708;53.114;9.388;2024-03-23T10:13:47;15.90;99.90
19152;DHT22;9708;53.114;9.388;2024-03-23T10:16:21;15.70;99.90
19152;DHT22;9708;53.114;9.388;2024-03-23T10:18:48;15.00;99.90
19152;DHT22;9708;53.114;9.388;2024-03-23T10:21:15;14.20;99.90
19152;DHT22;9708;53.114;9.388;2024-03-23T10:23:44;13.00;99.90
19152;DHT22;9708;53.114;9.388;2024-03-23T10:26:20;12.40;99.90
19152;DHT22;9708;53.114;9.388;2024-03-23T10:28:52;12.00;99.90
19152;DHT22;9708;53.114;9.388;2024-03-23T10:31:18;11.80;99.90
19152;DHT22;9708;53.114;9.388;2024-03-23T10:33:45;11.70;99.90
19152;DHT22;9708;53.114;9.388;2024-03-23T10:36:12;12.60;99.90
19152;DHT22;9708;53.114;9.388;2024-03-23T10:38:40;13.40;99.90
19152;DHT22;9708;53.114;9.388;2024-03-23T10:41:08;14.00;99.90
19152;DHT22;9708;53.114;9.388;2024-03-23T10:43:36;15.00;99.90
19152;DHT22;9708;53.114;9.388;2024-03-23T10:46:02;15.20;99.90
19152;DHT22;9708;53.114;9.388;2024-03-23T10:48:29;14.70;99.90
19152;DHT22;9708;53.114;9.388;2024-03-23T10:50:55;13.70;99.90
19152;DHT22;9708;53.114;9.388;2024-03-23T10:53:26;13.00;99.90
19152;DHT22;9708;53.114;9.388;2024-03-23T10:55:52;12.50;99.90
19152;DHT22;9708;53.114;9.388;2024-03-23T10:58:25;13.10;99.90
19152;DHT22;9708;53.114;9.388;2024-03-23T11:00:52;14.10;99.90
19152;DHT22;9708;53.114;9.388;2024-03-23T11:03:33;15.10;99.90
19152;DHT22;9708;53.114;9.388;2024-03-23T11:06:00;16.00;99.90
19152;DHT22;9708;53.114;9.388;2024-03-23T11:08:33;16.70;99.90
19152;DHT22;9708;53.114;9.388;2024-03-23T11:11:12;17.00;99.90
19152;DHT22;9708;53.114;9.388;2024-03-23T11:13:41;16.40;99.90
19152;DHT22;9708;53.114;9.388;2024-03-23T11:16:14;16.60;99.90
19152;DHT22;9708;53.114;9.388;2024-03-23T11:18:41;15.70;99.90
19152;DHT22;9708;53.114;9.388;2024-03-23T11:21:07;14.60;99.90
19152;DHT22;9708;53.114;9.388;2024-03-23T11:23:34;13.60;99.90
19152;DHT22;9708;53.114;9.388;2024-03-23T11:26:00;14.60;99.90
19152;DHT22;9708;53.114;9.388;2024-03-23T11:28:27;15.60;99.90
19152;DHT22;9708;53.114;9.388;2024-03-23T11:30:54;15.70;99.90
19152;DHT22;9708;53.114;9.388;2024-03-23T11:33:21;14.40;99.90
19152;DHT22;9708;53.114;9.388;2024-03-23T11:35:47;13.60;99.90
19152;DHT22;9708;53.114;9.388;2024-03-23T11:38:15;13.80;99.90
19152;DHT22;9708;53.114;9.388;2024-03-23T11:40:42;14.90;99.90
19152;DHT22;9708;53.114;9.388;2024-03-23T11:43:11;15.40;99.90
19152;DHT22;9708;53.114;9.388;2024-03-23T11:45:39;16.20;99.90
19152;DHT22;9708;53.114;9.388;2024-03-23T11:48:09;16.00;99.90
19152;DHT22;9708;53.114;9.388;2024-03-23T11:50:38;15.30;99.90
19152;DHT22;9708;53.114;9.388;2024-03-23T11:53:12;15.50;99.90
19152;DHT22;9708;53.114;9.388;2024-03-23T11:55:43;15.00;99.90
19152;DHT22;9708;53.114;9.388;2024-03-23T11:58:09;15.50;99.90
19152;DHT22;9708;53.114;9.388;2024-03-23T12:00:36;16.30;99.90
19152;DHT22;9708;53.114;9.388;2024-03-23T12:03:03;16.40;99.90
19152;DHT22;9708;53.114;9.388;2024-03-23T12:05:32;16.40;99.90
19152;DHT22;9708;53.114;9.388;2024-03-23T12:08:18;16.30;99.90
19152;DHT22;9708;53.114;9.388;2024-03-23T12:10:48;15.60;99.90
19152;DHT22;9708;53.114;9.388;2024-03-23T12:13:18;15.70;99.90
19152;DHT22;9708;53.114;9.388;2024-03-23T12:15:46;15.60;99.90
19152;DHT22;9708;53.114;9.388;2024-03-23T12:18:13;15.00;99.90
19152;DHT22;9708;53.114;9.388;2024-03-23T12:20:41;13.90;99.90
19152;DHT22;9708;53.114;9.388;2024-03-23T12:23:09;13.10;99.90
19152;DHT22;9708;53.114;9.388;2024-03-23T12:25:37;13.10;99.90
19152;DHT22;9708;53.114;9.388;2024-03-23T12:28:05;13.10;99.90
19152;DHT22;9708;53.114;9.388;2024-03-23T12:30:32;14.40;99.90
19152;DHT22;9708;53.114;9.388;2024-03-23T12:32:59;15.80;99.90
19152;DHT22;9708;53.114;9.388;2024-03-23T12:35:25;16.00;99.90
19152;DHT22;9708;53.114;9.388;2024-03-23T12:37:53;15.20;99.90
19152;DHT22;9708;53.114;9.388;2024-03-23T12:40:19;15.50;99.90
19152;DHT22;9708;53.114;9.388;2024-03-23T12:42:46;16.10;99.90
19152;DHT22;9708;53.114;9.388;2024-03-23T12:45:12;15.50;99.90
19152;DHT22;9708;53.114;9.388;2024-03-23T12:47:39;15.50;99.90
19152;DHT22;9708;53.114;9.388;2024-03-23T12:50:05;14.40;99.90
19152;DHT22;9708;53.114;9.388;2024-03-23T12:52:32;14.20;99.90
19152;DHT22;9708;53.114;9.388;2024-03-23T12:54:59;13.50;99.90
19152;DHT22;9708;53.114;9.388;2024-03-23T12:57:26;12.50;99.90
19152;DHT22;9708;53.114;9.388;2024-03-23T12:59:53;11.60;99.90
19152;DHT22;9708;53.114;9.388;2024-03-23T13:02:20;10.00;99.90
19152;DHT22;9708;53.114;9.388;2024-03-23T13:04:49;8.90;99.90
19152;DHT22;9708;53.114;9.388;2024-03-23T13:07:16;8.00;99.90
19152;DHT22;9708;53.114;9.388;2024-03-23T13:09:42;7.90;99.90
19152;DHT22;9708;53.114;9.388;2024-03-23T13:12:10;8.00;99.90
19152;DHT22;9708;53.114;9.388;2024-03-23T13:14:37;7.70;99.90
19152;DHT22;9708;53.114;9.388;2024-03-23T13:17:04;7.90;99.90
19152;DHT22;9708;53.114;9.388;2024-03-23T13:19:31;8.00;99.90
19152;DHT22;9708;53.114;9.388;2024-03-23T13:21:58;7.90;99.90
19152;DHT22;9708;53.114;9.388;2024-03-23T13:24:26;7.90;99.90
19152;DHT22;9708;53.114;9.388;2024-03-23T13:26:52;7.90;99.90
19152;DHT22;9708;53.114;9.388;2024-03-23T13:29:21;7.90;99.90
19152;DHT22;9708;53.114;9.388;2024-03-23T13:31:48;8.00;99.90
19152;DHT22;9708;53.114;9.388;2024-03-23T13:34:16;8.10;99.90
19152;DHT22;9708;53.114;9.388;2024-03-23T13:36:41;8.20;99.90
19152;DHT22;9708;53.114;9.388;2024-03-23T13:39:08;8.60;99.90
19152;DHT22;9708;53.114;9.388;2024-03-23T13:41:37;9.50;99.90
19152;DHT22;9708;53.114;9.388;2024-03-23T13:44:05;9.90;99.90
19152;DHT22;9708;53.114;9.388;2024-03-23T13:46:32;10.10;99.90
19152;DHT22;9708;53.114;9.388;2024-03-23T13:48:59;10.70;99.90
19152;DHT22;9708;53.114;9.388;2024-03-23T13:51:26;11.40;99.90
19152;DHT22;9708;53.114;9.388;2024-03-23T13:53:53;11.60;99.90
19152;DHT22;9708;53.114;9.388;2024-03-23T13:56:19;11.10;99.90
19152;DHT22;9708;53.114;9.388;2024-03-23T13:58:46;11.20;99.90
19152;DHT22;9708;53.114;9.388;2024-03-23T14:01:13;11.70;99.90
19152;DHT22;9708;53.114;9.388;2024-03-23T14:03:42;12.20;99.90
19152;DHT22;9708;53.114;9.388;2024-03-23T14:06:09;12.40;99.90
19152;DHT22;9708;53.114;9.388;2024-03-23T14:08:36;12.30;99.90
19152;DHT22;9708;53.114;9.388;2024-03-23T14:11:04;12.10;99.90
19152;DHT22;9708;53.114;9.388;2024-03-23T14:13:32;11.60;99.90
19152;DHT22;9708;53.114;9.388;2024-03-23T14:15:58;10.90;99.90
19152;DHT22;9708;53.114;9.388;2024-03-23T14:18:25;10.60;99.90
19152;DHT22;9708;53.114;9.388;2024-03-23T14:20:56;10.40;99.90
19152;DHT22;9708;53.114;9.388;2024-03-23T14:23:25;10.10;99.90
19152;DHT22;9708;53.114;9.388;2024-03-23T14:25:53;9.90;99.90
19152;DHT22;9708;53.114;9.388;2024-03-23T14:28:21;9.30;99.90
19152;DHT22;9708;53.114;9.388;2024-03-23T14:30:48;8.70;99.90
19152;DHT22;9708;53.114;9.388;2024-03-23T14:33:15;8.40;99.90
19152;DHT22;9708;53.114;9.388;2024-03-23T14:35:41;8.20;99.90
19152;DHT22;9708;53.114;9.388;2024-03-23T14:38:09;8.00;99.90
19152;DHT22;9708;53.114;9.388;2024-03-23T14:40:35;7.80;99.90
19152;DHT22;9708;53.114;9.388;2024-03-23T14:43:02;7.90;99.90
19152;DHT22;9708;53.114;9.388;2024-03-23T14:45:28;8.00;99.90
19152;DHT22;9708;53.114;9.388;2024-03-23T14:47:55;7.90;99.90
19152;DHT22;9708;53.114;9.388;2024-03-23T14:50:20;8.00;99.90
19152;DHT22;9708;53.114;9.388;2024-03-23T14:52:47;8.10;99.90
19152;DHT22;9708;53.114;9.388;2024-03-23T14:55:15;8.30;99.90
19152;DHT22;9708;53.114;9.388;2024-03-23T14:57:42;8.70;99.90
19152;DHT22;9708;53.114;9.388;2024-03-23T15:00:09;9.00;99.90
19152;DHT22;9708;53.114;9.388;2024-03-23T15:02:37;9.30;99.90
19152;DHT22;9708;53.114;9.388;2024-03-23T15:05:04;9.40;99.90
19152;DHT22;9708;53.114;9.388;2024-03-23T15:07:34;9.30;99.90
19152;DHT22;9708;53.114;9.388;2024-03-23T15:10:00;9.30;99.90
19152;DHT22;9708;53.114;9.388;2024-03-23T15:12:28;8.90;99.90
19152;DHT22;9708;53.114;9.388;2024-03-23T15:14:54;9.00;99.90
19152;DHT22;9708;53.114;9.388;2024-03-23T15:17:21;9.10;99.90
19152;DHT22;9708;53.114;9.388;2024-03-23T15:19:47;8.90;99.90
19152;DHT22;9708;53.114;9.388;2024-03-23T15:22:14;9.00;99.90
19152;DHT22;9708;53.114;9.388;2024-03-23T15:24:40;8.90;99.90
19152;DHT22;9708;53.114;9.388;2024-03-23T15:27:07;8.70;99.90
19152;DHT22;9708;53.114;9.388;2024-03-23T15:29:36;8.70;99.90
19152;DHT22;9708;53.114;9.388;2024-03-23T15:32:04;8.70;99.90
19152;DHT22;9708;53.114;9.388;2024-03-23T15:34:30;8.90;99.90
19152;DHT22;9708;53.114;9.388;2024-03-23T15:36:57;9.10;99.90
19152;DHT22;9708;53.114;9.388;2024-03-23T15:39:22;9.10;99.90
19152;DHT22;9708;53.114;9.388;2024-03-23T15:41:49;9.10;99.90
19152;DHT22;9708;53.114;9.388;2024-03-23T15:44:15;8.90;99.90
19152;DHT22;9708;53.114;9.388;2024-03-23T15:46:43;9.00;99.90
19152;DHT22;9708;53.114;9.388;2024-03-23T15:49:09;9.30;99.90
19152;DHT22;9708;53.114;9.388;2024-03-23T15:51:36;9.30;99.90
19152;DHT22;9708;53.114;9.388;2024-03-23T15:54:02;9.40;99.90
19152;DHT22;9708;53.114;9.388;2024-03-23T15:56:30;9.40;99.90
19152;DHT22;9708;53.114;9.388;2024-03-23T15:58:55;9.30;99.90
19152;DHT22;9708;53.114;9.388;2024-03-23T16:01:28;9.30;99.90
19152;DHT22;9708;53.114;9.388;2024-03-23T16:03:55;9.20;99.90
19152;DHT22;9708;53.114;9.388;2024-03-23T16:06:22;9.20;99.90
19152;DHT22;9708;53.114;9.388;2024-03-23T16:08:47;9.20;99.90
19152;DHT22;9708;53.114;9.388;2024-03-23T16:11:14;9.10;99.90
19152;DHT22;9708;53.114;9.388;2024-03-23T16:13:40;9.00;99.90
19152;DHT22;9708;53.114;9.388;2024-03-23T16:16:08;9.00;99.90
19152;DHT22;9708;53.114;9.388;2024-03-23T16:18:36;9.10;99.90
19152;DHT22;9708;53.114;9.388;2024-03-23T16:21:06;9.10;99.90
19152;DHT22;9708;53.114;9.388;2024-03-23T16:23:32;8.80;99.90
19152;DHT22;9708;53.114;9.388;2024-03-23T16:26:00;8.50;99.90
19152;DHT22;9708;53.114;9.388;2024-03-23T16:28:28;8.20;99.90
19152;DHT22;9708;53.114;9.388;2024-03-23T16:30:59;7.80;99.90
19152;DHT22;9708;53.114;9.388;2024-03-23T16:33:25;7.50;99.90
19152;DHT22;9708;53.114;9.388;2024-03-23T16:35:56;7.50;99.90
19152;DHT22;9708;53.114;9.388;2024-03-23T16:38:24;7.40;99.90
19152;DHT22;9708;53.114;9.388;2024-03-23T16:40:58;7.40;99.90
19152;DHT22;9708;53.114;9.388;2024-03-23T16:43:24;7.50;99.90
19152;DHT22;9708;53.114;9.388;2024-03-23T16:45:56;7.60;99.90
19152;DHT22;9708;53.114;9.388;2024-03-23T16:48:23;7.60;99.90